createdAt,value
2023-04-01T00:00:08.818Z,6.82
2023-04-01T00:01:08.802Z,6.81
2023-04-01T00:02:08.883Z,6.80
2023-04-01T00:03:08.857Z,6.79
2023-04-01T00:04:08.851Z,6.79
2023-04-01T00:05:08.761Z,6.78
2023-04-01T00:06:08.743Z,6.78
2023-04-01T00:07:08.763Z,6.78
2023-04-01T00:08:08.722Z,6.78
2023-04-01T00:09:08.735Z,6.78
2023-04-01T00:10:08.708Z,6.78
2023-04-01T00:11:08.684Z,6.78
2023-04-01T00:12:08.686Z,6.78
2023-04-01T00:13:08.678Z,6.78
2023-04-01T00:14:08.650Z,6.78
2023-04-01T00:15:08.685Z,6.78
2023-04-01T00:16:19.697Z,6.78
2023-04-01T00:17:08.694Z,6.79
2023-04-01T00:18:08.605Z,6.79
2023-04-01T00:19:08.587Z,6.79
2023-04-01T00:20:08.590Z,6.80
2023-04-01T00:21:08.554Z,6.80
2023-04-01T00:22:08.551Z,6.80
2023-04-01T00:23:08.539Z,6.80
2023-04-01T00:24:08.522Z,6.80
2023-04-01T00:25:08.540Z,6.79
2023-04-01T00:26:08.490Z,6.78
2023-04-01T00:27:08.488Z,6.77
2023-04-01T00:28:08.498Z,6.76
2023-04-01T00:29:08.496Z,6.76
2023-04-01T00:30:08.466Z,6.76
2023-04-01T00:31:08.513Z,6.75
2023-04-01T00:32:08.431Z,6.75
2023-04-01T00:33:08.500Z,6.74
2023-04-01T00:34:08.390Z,6.74
2023-04-01T00:35:08.408Z,6.73
2023-04-01T00:36:08.407Z,6.73
2023-04-01T00:37:08.358Z,6.73
2023-04-01T00:38:08.341Z,6.73
2023-04-01T00:39:08.387Z,6.73
2023-04-01T00:40:08.320Z,6.74
2023-04-01T00:41:08.309Z,6.74
2023-04-01T00:42:08.318Z,6.73
2023-04-01T00:43:08.287Z,6.73
2023-04-01T00:44:08.289Z,6.73
2023-04-01T00:45:08.266Z,6.73
2023-04-01T00:46:08.247Z,6.73
2023-04-01T00:47:08.351Z,6.73
2023-04-01T00:48:08.284Z,6.72
2023-04-01T00:49:08.272Z,6.72
2023-04-01T00:50:08.180Z,6.71
2023-04-01T00:51:08.171Z,6.70
2023-04-01T00:52:08.212Z,6.69
2023-04-01T00:53:08.164Z,6.69
2023-04-01T00:54:08.136Z,6.69
2023-04-01T00:55:08.133Z,6.69
2023-04-01T00:56:08.163Z,6.69
2023-04-01T00:57:08.185Z,6.70
2023-04-01T00:58:08.085Z,6.71
2023-04-01T00:59:08.088Z,6.71
2023-04-01T01:00:08.060Z,6.72
2023-04-01T01:01:08.061Z,6.72
2023-04-01T01:02:08.096Z,6.73
2023-04-01T01:03:08.139Z,6.73
2023-04-01T01:04:08.044Z,6.74
2023-04-01T01:05:07.993Z,6.75
2023-04-01T01:06:08.013Z,6.75
2023-04-01T01:07:07.992Z,6.75
2023-04-01T01:08:07.964Z,6.76
2023-04-01T01:09:07.977Z,6.77
2023-04-01T01:10:07.981Z,6.78
2023-04-01T01:11:07.923Z,6.79
2023-04-01T01:12:07.955Z,6.79
2023-04-01T01:13:07.906Z,6.80
2023-04-01T01:14:07.894Z,6.80
2023-04-01T01:15:07.902Z,6.80
2023-04-01T01:16:07.874Z,6.81
2023-04-01T01:17:07.836Z,6.82
2023-04-01T01:18:07.887Z,6.83
2023-04-01T01:19:07.820Z,6.83
2023-04-01T01:20:12.821Z,6.84
2023-04-01T01:21:07.804Z,6.85
2023-04-01T01:22:07.791Z,6.86
2023-04-01T01:23:07.798Z,6.87
2023-04-01T01:24:07.762Z,6.88
2023-04-01T01:25:07.755Z,6.89
2023-04-01T01:26:07.764Z,6.90
2023-04-01T01:27:07.729Z,6.91
2023-04-01T01:28:07.729Z,6.91
2023-04-01T01:29:07.694Z,6.92
2023-04-01T01:30:07.686Z,6.92
2023-04-01T01:31:07.687Z,6.92
2023-04-01T01:32:07.648Z,6.92
2023-04-01T01:33:07.886Z,6.92
2023-04-01T01:34:07.619Z,6.92
2023-04-01T01:35:07.617Z,6.92
2023-04-01T01:36:07.633Z,6.92
2023-04-01T01:37:07.602Z,6.92
2023-04-01T01:38:07.577Z,6.92
2023-04-01T01:39:07.642Z,6.92
2023-04-01T01:40:07.545Z,6.92
2023-04-01T01:41:07.563Z,6.91
2023-04-01T01:42:07.582Z,6.91
2023-04-01T01:43:07.537Z,6.91
2023-04-01T01:44:07.520Z,6.90
2023-04-01T01:45:07.499Z,6.90
2023-04-01T01:46:07.489Z,6.89
2023-04-01T01:47:07.507Z,6.88
2023-04-01T01:48:07.486Z,6.87
2023-04-01T01:49:07.444Z,6.87
2023-04-01T01:50:07.430Z,6.87
2023-04-01T01:51:07.412Z,6.87
2023-04-01T01:52:07.396Z,6.86
2023-04-01T01:53:07.407Z,6.86
2023-04-01T01:54:07.418Z,6.86
2023-04-01T01:55:07.373Z,6.86
2023-04-01T01:56:07.359Z,6.86
2023-04-01T01:57:07.405Z,6.87
2023-04-01T01:58:07.352Z,6.87
2023-04-01T01:59:07.317Z,6.88
2023-04-01T02:00:07.339Z,6.89
2023-04-01T02:01:07.314Z,6.89
2023-04-01T02:02:07.286Z,6.90
2023-04-01T02:03:07.446Z,6.91
2023-04-01T02:04:07.331Z,6.91
2023-04-01T02:05:07.233Z,6.91
2023-04-01T02:06:07.214Z,6.91
2023-04-01T02:07:07.228Z,6.91
2023-04-01T02:08:07.194Z,6.91
2023-04-01T02:09:07.189Z,6.90
2023-04-01T02:10:07.182Z,6.90
2023-04-01T02:11:07.152Z,6.90
2023-04-01T02:12:07.144Z,6.90
2023-04-01T02:13:07.154Z,6.89
2023-04-01T02:14:07.140Z,6.89
2023-04-01T02:15:07.108Z,6.88
2023-04-01T02:16:07.117Z,6.89
2023-04-01T02:17:07.091Z,6.89
2023-04-01T02:18:07.078Z,6.89
2023-04-01T02:19:07.081Z,6.89
2023-04-01T02:20:07.044Z,6.89
2023-04-01T02:21:07.041Z,6.88
2023-04-01T02:22:07.014Z,6.88
2023-04-01T02:23:06.994Z,6.88
2023-04-01T02:24:07.007Z,6.89
2023-04-01T02:25:06.997Z,6.89
2023-04-01T02:26:06.977Z,6.89
2023-04-01T02:27:06.976Z,6.90
2023-04-01T02:28:06.921Z,6.90
2023-04-01T02:29:06.916Z,6.90
2023-04-01T02:30:06.915Z,6.89
2023-04-01T02:31:07.001Z,6.89
2023-04-01T02:32:06.896Z,6.89
2023-04-01T02:33:07.002Z,6.89
2023-04-01T02:34:06.881Z,6.90
2023-04-01T02:35:06.867Z,6.90
2023-04-01T02:36:06.845Z,6.90
2023-04-01T02:37:06.820Z,6.90
2023-04-01T02:38:06.824Z,6.90
2023-04-01T02:39:06.805Z,6.90
2023-04-01T02:40:06.790Z,6.90
2023-04-01T02:41:06.838Z,6.90
2023-04-01T02:42:06.754Z,6.89
2023-04-01T02:43:06.767Z,6.89
2023-04-01T02:44:06.717Z,6.88
2023-04-01T02:45:06.741Z,6.88
2023-04-01T02:46:06.717Z,6.88
2023-04-01T02:47:06.802Z,6.88
2023-04-01T02:48:06.726Z,6.87
2023-04-01T02:49:06.670Z,6.87
2023-04-01T02:50:06.680Z,6.87
2023-04-01T02:51:06.689Z,6.86
2023-04-01T02:52:06.630Z,6.86
2023-04-01T02:53:06.612Z,6.86
2023-04-01T02:54:06.609Z,6.86
2023-04-01T02:55:06.588Z,6.86
2023-04-01T02:56:06.610Z,6.86
2023-04-01T02:57:06.610Z,6.86
2023-04-01T02:58:06.567Z,6.85
2023-04-01T02:59:06.616Z,6.85
2023-04-01T03:00:06.541Z,6.85
2023-04-01T03:01:06.608Z,6.85
2023-04-01T03:02:06.533Z,6.84
2023-04-01T03:03:06.576Z,6.84
2023-04-01T03:04:06.473Z,6.83
2023-04-01T03:05:06.464Z,6.83
2023-04-01T03:06:06.496Z,6.82
2023-04-01T03:07:06.508Z,6.82
2023-04-01T03:08:06.420Z,6.81
2023-04-01T03:09:06.448Z,6.80
2023-04-01T03:10:06.395Z,6.80
2023-04-01T03:11:06.443Z,6.79
2023-04-01T03:12:06.382Z,6.78
2023-04-01T03:13:06.370Z,6.78
2023-04-01T03:14:06.351Z,6.77
2023-04-01T03:15:11.512Z,6.77
2023-04-01T03:16:06.380Z,6.76
2023-04-01T03:17:06.313Z,6.76
2023-04-01T03:18:06.308Z,6.76
2023-04-01T03:19:06.282Z,6.76
2023-04-01T03:20:06.267Z,6.75
2023-04-01T03:21:06.273Z,6.75
2023-04-01T03:22:06.240Z,6.75
2023-04-01T03:23:06.240Z,6.75
2023-04-01T03:24:06.251Z,6.74
2023-04-01T03:25:06.201Z,6.74
2023-04-01T03:26:06.226Z,6.73
2023-04-01T03:27:06.178Z,6.72
2023-04-01T03:28:06.162Z,6.72
2023-04-01T03:29:06.150Z,6.71
2023-04-01T03:30:06.241Z,6.70
2023-04-01T03:31:06.197Z,6.69
2023-04-01T03:32:06.133Z,6.68
2023-04-01T03:33:06.130Z,6.68
2023-04-01T03:34:06.110Z,6.67
2023-04-01T03:35:06.085Z,6.66
2023-04-01T03:36:06.087Z,6.65
2023-04-01T03:37:06.070Z,6.64
2023-04-01T03:38:06.083Z,6.63
2023-04-01T03:39:06.059Z,6.62
2023-04-01T03:40:06.013Z,6.61
2023-04-01T03:41:06.021Z,6.60
2023-04-01T03:42:05.995Z,6.59
2023-04-01T03:43:05.998Z,6.58
2023-04-01T03:44:05.969Z,6.57
2023-04-01T03:45:06.015Z,6.56
2023-04-01T03:46:06.004Z,6.55
2023-04-01T03:47:05.946Z,6.54
2023-04-01T03:48:05.957Z,6.54
2023-04-01T03:49:05.937Z,6.53
2023-04-01T03:50:05.889Z,6.52
2023-04-01T03:51:05.899Z,6.52
2023-04-01T03:52:05.881Z,6.51
2023-04-01T03:53:05.852Z,6.51
2023-04-01T03:54:05.833Z,6.51
2023-04-01T03:55:05.841Z,6.51
2023-04-01T03:56:05.826Z,6.50
2023-04-01T03:57:05.913Z,6.50
2023-04-01T03:58:05.800Z,6.50
2023-04-01T03:59:05.780Z,6.50
2023-04-01T04:00:05.759Z,6.50
2023-04-01T04:01:05.743Z,6.49
2023-04-01T04:02:05.726Z,6.49
2023-04-01T04:03:05.795Z,6.49
2023-04-01T04:04:05.730Z,6.49
2023-04-01T04:05:05.699Z,6.49
2023-04-01T04:06:05.697Z,6.48
2023-04-01T04:07:05.678Z,6.48
2023-04-01T04:08:05.662Z,6.47
2023-04-01T04:09:05.652Z,6.47
2023-04-01T04:10:05.633Z,6.47
2023-04-01T04:11:05.635Z,6.47
2023-04-01T04:12:05.618Z,6.46
2023-04-01T04:13:05.603Z,6.46
2023-04-01T04:14:05.604Z,6.45
2023-04-01T04:15:05.572Z,6.45
2023-04-01T04:16:05.614Z,6.44
2023-04-01T04:17:05.554Z,6.44
2023-04-01T04:18:05.570Z,6.44
2023-04-01T04:19:05.527Z,6.44
2023-04-01T04:20:05.505Z,6.44
2023-04-01T04:21:05.512Z,6.44
2023-04-01T04:22:05.486Z,6.45
2023-04-01T04:23:05.502Z,6.45
2023-04-01T04:24:05.457Z,6.46
2023-04-01T04:25:05.441Z,6.47
2023-04-01T04:26:05.493Z,6.47
2023-04-01T04:27:05.423Z,6.48
2023-04-01T04:28:05.415Z,6.49
2023-04-01T04:29:05.401Z,6.49
2023-04-01T04:30:05.426Z,6.49
2023-04-01T04:31:05.376Z,6.50
2023-04-01T04:32:05.398Z,6.51
2023-04-01T04:33:05.379Z,6.51
2023-04-01T04:34:05.350Z,6.52
2023-04-01T04:35:05.312Z,6.52
2023-04-01T04:36:05.480Z,6.53
2023-04-01T04:37:05.278Z,6.53
2023-04-01T04:38:05.290Z,6.53
2023-04-01T04:39:05.273Z,6.53
2023-04-01T04:40:05.258Z,6.53
2023-04-01T04:41:05.260Z,6.53
2023-04-01T04:42:05.249Z,6.53
2023-04-01T04:43:05.227Z,6.53
2023-04-01T04:44:05.236Z,6.53
2023-04-01T04:45:05.213Z,6.53
2023-04-01T04:46:05.212Z,6.53
2023-04-01T04:47:05.223Z,6.53
2023-04-01T04:48:05.170Z,6.53
2023-04-01T04:49:05.183Z,6.52
2023-04-01T04:50:05.122Z,6.52
2023-04-01T04:51:05.120Z,6.52
2023-04-01T04:52:05.116Z,6.52
2023-04-01T04:53:05.076Z,6.52
2023-04-01T04:54:05.078Z,6.52
2023-04-01T04:55:05.073Z,6.52
2023-04-01T04:56:05.046Z,6.52
2023-04-01T04:57:05.075Z,6.52
2023-04-01T04:58:05.025Z,6.53
2023-04-01T04:59:05.053Z,6.53
2023-04-01T05:00:04.995Z,6.54
2023-04-01T05:01:05.018Z,6.55
2023-04-01T05:02:05.005Z,6.55
2023-04-01T05:03:05.100Z,6.56
2023-04-01T05:04:04.963Z,6.57
2023-04-01T05:05:04.936Z,6.58
2023-04-01T05:06:04.919Z,6.59
2023-04-01T05:07:04.900Z,6.60
2023-04-01T05:08:04.904Z,6.61
2023-04-01T05:09:04.871Z,6.61
2023-04-01T05:10:04.885Z,6.62
2023-04-01T05:11:04.981Z,6.63
2023-04-01T05:12:04.851Z,6.64
2023-04-01T05:13:04.829Z,6.65
2023-04-01T05:14:04.820Z,6.66
2023-04-01T05:15:04.812Z,6.66
2023-04-01T05:16:04.788Z,6.67
2023-04-01T05:17:04.871Z,6.68
2023-04-01T05:18:04.816Z,6.69
2023-04-01T05:19:04.754Z,6.70
2023-04-01T05:20:04.748Z,6.71
2023-04-01T05:21:04.744Z,6.72
2023-04-01T05:22:04.723Z,6.73
2023-04-01T05:23:04.714Z,6.74
2023-04-01T05:24:04.686Z,6.74
2023-04-01T05:25:04.680Z,6.75
2023-04-01T05:26:04.690Z,6.76
2023-04-01T05:27:04.650Z,6.76
2023-04-01T05:28:04.632Z,6.77
2023-04-01T05:29:04.647Z,6.77
2023-04-01T05:30:04.627Z,6.77
2023-04-01T05:31:04.617Z,6.78
2023-04-01T05:32:04.585Z,6.78
2023-04-01T05:33:04.596Z,6.78
2023-04-01T05:34:04.562Z,6.79
2023-04-01T05:35:04.565Z,6.79
2023-04-01T05:36:04.569Z,6.79
2023-04-01T05:37:04.529Z,6.79
2023-04-01T05:38:04.508Z,6.79
2023-04-01T05:39:04.513Z,6.79
2023-04-01T05:40:04.502Z,6.80
2023-04-01T05:41:04.477Z,6.80
2023-04-01T05:42:04.458Z,6.80
2023-04-01T05:43:04.438Z,6.81
2023-04-01T05:44:04.437Z,6.81
2023-04-01T05:45:04.423Z,6.81
2023-04-01T05:46:04.455Z,6.82
2023-04-01T05:47:04.393Z,6.82
2023-04-01T05:48:04.409Z,6.82
2023-04-01T05:49:04.368Z,6.83
2023-04-01T05:50:04.357Z,6.83
2023-04-01T05:51:04.368Z,6.83
2023-04-01T05:52:04.380Z,6.83
2023-04-01T05:53:04.334Z,6.84
2023-04-01T05:54:04.313Z,6.84
2023-04-01T05:55:04.294Z,6.84
2023-04-01T05:56:04.302Z,6.84
2023-04-01T05:57:04.321Z,6.85
2023-04-01T05:58:04.256Z,6.85
2023-04-01T05:59:04.250Z,6.86
2023-04-01T06:00:04.235Z,6.86
2023-04-01T06:01:10.130Z,6.87
2023-04-01T06:02:04.212Z,6.88
2023-04-01T06:03:04.247Z,6.89
2023-04-01T06:04:04.328Z,6.89
2023-04-01T06:05:04.167Z,6.90
2023-04-01T06:06:04.172Z,6.91
2023-04-01T06:07:04.143Z,6.92
2023-04-01T06:08:04.122Z,6.92
2023-04-01T06:09:04.115Z,6.93
2023-04-01T06:10:04.104Z,6.93
2023-04-01T06:11:04.093Z,6.93
2023-04-01T06:12:04.073Z,6.94
2023-04-01T06:13:04.065Z,6.94
2023-04-01T06:14:04.048Z,6.94
2023-04-01T06:15:04.042Z,6.94
2023-04-01T06:16:04.111Z,6.94
2023-04-01T06:17:04.024Z,6.94
2023-04-01T06:18:04.073Z,6.94
2023-04-01T06:19:03.998Z,6.95
2023-04-01T06:20:03.964Z,6.95
2023-04-01T06:21:03.976Z,6.96
2023-04-01T06:22:03.973Z,6.97
2023-04-01T06:23:03.959Z,6.98
2023-04-01T06:24:03.916Z,6.99
2023-04-01T06:25:03.912Z,7.00
2023-04-01T06:26:03.938Z,7.02
2023-04-01T06:27:03.887Z,7.03
2023-04-01T06:28:03.880Z,7.04
2023-04-01T06:29:03.873Z,7.05
2023-04-01T06:30:03.862Z,7.06
2023-04-01T06:31:03.867Z,7.07
2023-04-01T06:32:03.870Z,7.07
2023-04-01T06:33:03.865Z,7.07
2023-04-01T06:34:03.812Z,7.08
2023-04-01T06:35:03.788Z,7.08
2023-04-01T06:36:03.872Z,7.09
2023-04-01T06:37:03.794Z,7.09
2023-04-01T06:38:03.745Z,7.10
2023-04-01T06:39:03.741Z,7.10
2023-04-01T06:40:03.725Z,7.11
2023-04-01T06:41:03.720Z,7.11
2023-04-01T06:42:03.694Z,7.12
2023-04-01T06:43:03.695Z,7.13
2023-04-01T06:44:03.673Z,7.14
2023-04-01T06:45:03.693Z,7.14
2023-04-01T06:46:03.748Z,7.15
2023-04-01T06:47:03.638Z,7.16
2023-04-01T06:48:03.670Z,7.16
2023-04-01T06:49:03.650Z,7.17
2023-04-01T06:50:03.592Z,7.18
2023-04-01T06:51:03.575Z,7.18
2023-04-01T06:52:03.599Z,7.19
2023-04-01T06:53:03.550Z,7.19
2023-04-01T06:54:03.559Z,7.20
2023-04-01T06:55:03.534Z,7.20
2023-04-01T06:56:03.542Z,7.21
2023-04-01T06:57:03.537Z,7.22
2023-04-01T06:58:03.512Z,7.24
2023-04-01T06:59:03.535Z,7.26
2023-04-01T07:00:03.472Z,7.28
2023-04-01T07:01:03.475Z,7.31
2023-04-01T07:02:03.451Z,7.33
2023-04-01T07:03:05.513Z,7.35
2023-04-01T07:04:03.429Z,7.38
2023-04-01T07:05:03.408Z,7.40
2023-04-01T07:06:03.398Z,7.42
2023-04-01T07:07:03.379Z,7.44
2023-04-01T07:08:03.365Z,7.45
2023-04-01T07:09:05.533Z,7.46
2023-04-01T07:10:03.344Z,7.47
2023-04-01T07:11:03.367Z,7.48
2023-04-01T07:12:03.312Z,7.49
2023-04-01T07:13:03.306Z,7.49
2023-04-01T07:14:03.286Z,7.49
2023-04-01T07:15:03.275Z,7.49
2023-04-01T07:16:03.257Z,7.49
2023-04-01T07:17:03.279Z,7.49
2023-04-01T07:18:03.268Z,7.50
2023-04-01T07:19:03.228Z,7.51
2023-04-01T07:20:03.238Z,7.51
2023-04-01T07:21:03.189Z,7.51
2023-04-01T07:22:03.195Z,7.52
2023-04-01T07:23:03.200Z,7.53
2023-04-01T07:24:03.160Z,7.54
2023-04-01T07:25:03.137Z,7.55
2023-04-01T07:26:03.129Z,7.56
2023-04-01T07:27:03.111Z,7.58
2023-04-01T07:28:03.129Z,7.59
2023-04-01T07:29:03.109Z,7.60
2023-04-01T07:30:03.092Z,7.61
2023-04-01T07:31:03.125Z,7.62
2023-04-01T07:32:03.096Z,7.63
2023-04-01T07:33:03.108Z,7.65
2023-04-01T07:34:03.031Z,7.67
2023-04-01T07:35:03.019Z,7.68
2023-04-01T07:36:03.037Z,7.70
2023-04-01T07:37:03.114Z,7.71
2023-04-01T07:38:02.994Z,7.72
2023-04-01T07:39:02.995Z,7.74
2023-04-01T07:40:02.950Z,7.75
2023-04-01T07:41:02.987Z,7.76
2023-04-01T07:42:02.936Z,7.78
2023-04-01T07:43:02.976Z,7.80
2023-04-01T07:44:02.946Z,7.82
2023-04-01T07:45:02.938Z,7.84
2023-04-01T07:46:02.996Z,7.87
2023-04-01T07:47:02.866Z,7.88
2023-04-01T07:48:02.895Z,7.89
2023-04-01T07:49:02.839Z,7.89
2023-04-01T07:50:02.857Z,7.89
2023-04-01T07:51:02.814Z,7.90
2023-04-01T07:52:02.809Z,7.91
2023-04-01T07:53:02.795Z,7.92
2023-04-01T07:54:02.781Z,7.93
2023-04-01T07:55:02.792Z,7.95
2023-04-01T07:56:02.762Z,7.96
2023-04-01T07:57:02.794Z,7.98
2023-04-01T07:58:02.750Z,8.00
2023-04-01T07:59:02.761Z,8.01
2023-04-01T08:00:02.725Z,8.02
2023-04-01T08:01:02.683Z,8.03
2023-04-01T08:02:02.711Z,8.04
2023-04-01T08:03:02.764Z,8.04
2023-04-01T08:04:02.805Z,8.05
2023-04-01T08:05:02.782Z,8.06
2023-04-01T08:06:02.643Z,8.06
2023-04-01T08:07:02.618Z,8.07
2023-04-01T08:08:02.637Z,8.07
2023-04-01T08:09:02.595Z,8.07
2023-04-01T08:10:02.577Z,8.08
2023-04-01T08:11:02.579Z,8.08
2023-04-01T08:12:02.551Z,8.09
2023-04-01T08:13:02.532Z,8.10
2023-04-01T08:14:02.584Z,8.11
2023-04-01T08:15:02.514Z,8.11
2023-04-01T08:16:02.524Z,8.12
2023-04-01T08:17:02.483Z,8.12
2023-04-01T08:18:02.528Z,8.12
2023-04-01T08:19:02.470Z,8.12
2023-04-01T08:20:02.448Z,8.12
2023-04-01T08:21:02.430Z,8.12
2023-04-01T08:22:02.447Z,8.13
2023-04-01T08:23:02.412Z,8.13
2023-04-01T08:24:02.397Z,8.14
2023-04-01T08:25:02.414Z,8.15
2023-04-01T08:26:02.383Z,8.15
2023-04-01T08:27:02.352Z,8.16
2023-04-01T08:28:02.353Z,8.17
2023-04-01T08:29:02.336Z,8.19
2023-04-01T08:30:02.337Z,8.21
2023-04-01T08:31:02.328Z,8.23
2023-04-01T08:32:02.368Z,8.24
2023-04-01T08:33:02.381Z,8.26
2023-04-01T08:34:02.271Z,8.27
2023-04-01T08:35:02.259Z,8.28
2023-04-01T08:36:02.277Z,8.30
2023-04-01T08:37:02.243Z,8.32
2023-04-01T08:38:02.227Z,8.34
2023-04-01T08:39:02.208Z,8.37
2023-04-01T08:40:02.201Z,8.40
2023-04-01T08:41:02.204Z,8.43
2023-04-01T08:42:02.164Z,8.45
2023-04-01T08:43:02.158Z,8.47
2023-04-01T08:44:02.154Z,8.49
2023-04-01T08:45:02.137Z,8.51
2023-04-01T08:46:02.123Z,8.51
2023-04-01T08:47:02.113Z,8.52
2023-04-01T08:48:02.171Z,8.52
2023-04-01T08:49:02.136Z,8.52
2023-04-01T08:50:02.099Z,8.52
2023-04-01T08:51:02.424Z,8.53
2023-04-01T08:52:02.053Z,8.54
2023-04-01T08:53:02.113Z,8.55
2023-04-01T08:54:02.025Z,8.57
2023-04-01T08:55:02.037Z,8.58
2023-04-01T08:56:02.016Z,8.60
2023-04-01T08:57:02.027Z,8.62
2023-04-01T08:58:01.974Z,8.65
2023-04-01T08:59:01.954Z,8.67
2023-04-01T09:00:01.945Z,8.70
2023-04-01T09:01:01.939Z,8.73
2023-04-01T09:02:01.972Z,8.76
2023-04-01T09:03:02.197Z,8.78
2023-04-01T09:04:02.020Z,8.80
2023-04-01T09:05:01.900Z,8.80
2023-04-01T09:06:01.912Z,8.80
2023-04-01T09:07:01.893Z,8.79
2023-04-01T09:08:01.845Z,8.78
2023-04-01T09:09:01.835Z,8.78
2023-04-01T09:10:01.872Z,8.78
2023-04-01T09:11:01.835Z,8.77
2023-04-01T09:12:01.831Z,8.78
2023-04-01T09:13:01.811Z,8.78
2023-04-01T09:14:01.766Z,8.79
2023-04-01T09:15:01.773Z,8.81
2023-04-01T09:16:01.799Z,8.84
2023-04-01T09:17:01.733Z,8.87
2023-04-01T09:18:01.740Z,8.91
2023-04-01T09:19:01.713Z,8.95
2023-04-01T09:20:01.714Z,8.98
2023-04-01T09:21:01.694Z,9.00
2023-04-01T09:22:01.706Z,9.02
2023-04-01T09:23:01.658Z,9.05
2023-04-01T09:24:01.644Z,9.07
2023-04-01T09:25:08.173Z,9.10
2023-04-01T09:26:02.242Z,9.12
2023-04-01T09:27:02.196Z,9.13
2023-04-01T09:28:01.596Z,9.14
2023-04-01T09:29:01.595Z,9.15
2023-04-01T09:30:01.588Z,9.15
2023-04-01T09:31:01.642Z,9.16
2023-04-01T09:32:01.576Z,9.16
2023-04-01T09:33:01.608Z,9.17
2023-04-01T09:34:01.525Z,9.17
2023-04-01T09:35:01.518Z,9.17
2023-04-01T09:36:01.506Z,9.17
2023-04-01T09:37:01.505Z,9.17
2023-04-01T09:38:01.494Z,9.18
2023-04-01T09:39:01.471Z,9.19
2023-04-01T09:40:01.455Z,9.22
2023-04-01T09:41:01.482Z,9.24
2023-04-01T09:42:01.443Z,9.26
2023-04-01T09:43:01.413Z,9.29
2023-04-01T09:44:01.421Z,9.32
2023-04-01T09:45:01.403Z,9.34
2023-04-01T09:46:01.402Z,9.35
2023-04-01T09:47:01.396Z,9.35
2023-04-01T09:48:01.381Z,9.34
2023-04-01T09:49:01.351Z,9.34
2023-04-01T09:50:01.338Z,9.34
2023-04-01T09:51:01.354Z,9.34
2023-04-01T09:52:01.312Z,9.35
2023-04-01T09:53:01.307Z,9.36
2023-04-01T09:54:01.276Z,9.38
2023-04-01T09:55:01.287Z,9.39
2023-04-01T09:56:01.261Z,9.41
2023-04-01T09:57:01.278Z,9.44
2023-04-01T09:58:01.242Z,9.47
2023-04-01T09:59:01.238Z,9.50
2023-04-01T10:00:01.209Z,9.52
2023-04-01T10:01:01.204Z,9.55
2023-04-01T10:02:01.234Z,9.58
2023-04-01T10:03:01.220Z,9.60
2023-04-01T10:04:01.168Z,9.62
2023-04-01T10:05:01.175Z,9.64
2023-04-01T10:06:01.168Z,9.65
2023-04-01T10:07:01.119Z,9.66
2023-04-01T10:08:01.108Z,9.67
2023-04-01T10:09:01.126Z,9.67
2023-04-01T10:10:01.079Z,9.67
2023-04-01T10:11:01.083Z,9.66
2023-04-01T10:12:01.082Z,9.66
2023-04-01T10:13:01.071Z,9.66
2023-04-01T10:14:01.031Z,9.66
2023-04-01T10:15:01.037Z,9.66
2023-04-01T10:16:01.166Z,9.67
2023-04-01T10:17:00.994Z,9.68
2023-04-01T10:18:01.049Z,9.68
2023-04-01T10:19:00.975Z,9.68
2023-04-01T10:20:00.968Z,9.69
2023-04-01T10:21:00.958Z,9.69
2023-04-01T10:22:00.947Z,9.70
2023-04-01T10:23:00.944Z,9.70
2023-04-01T10:24:00.936Z,9.71
2023-04-01T10:25:00.949Z,9.71
2023-04-01T10:26:00.899Z,9.72
2023-04-01T10:27:00.943Z,9.73
2023-04-01T10:28:00.914Z,9.75
2023-04-01T10:29:00.862Z,9.76
2023-04-01T10:30:00.843Z,9.77
2023-04-01T10:31:00.847Z,9.78
2023-04-01T10:32:00.868Z,9.80
2023-04-01T10:33:00.861Z,9.83
2023-04-01T10:34:00.840Z,9.85
2023-04-01T10:35:00.790Z,9.85
2023-04-01T10:36:00.821Z,9.85
2023-04-01T10:37:00.766Z,9.86
2023-04-01T10:38:00.763Z,9.86
2023-04-01T10:39:00.745Z,9.86
2023-04-01T10:40:00.746Z,9.86
2023-04-01T10:41:00.711Z,9.86
2023-04-01T10:42:00.691Z,9.86
2023-04-01T10:43:00.692Z,9.85
2023-04-01T10:44:00.680Z,9.85
2023-04-01T10:45:00.676Z,9.84
2023-04-01T10:46:00.704Z,9.83
2023-04-01T10:47:00.647Z,9.82
2023-04-01T10:48:00.655Z,9.80
2023-04-01T10:49:00.610Z,9.78
2023-04-01T10:50:00.609Z,9.77
2023-04-01T10:51:00.604Z,9.76
2023-04-01T10:52:00.567Z,9.75
2023-04-01T10:53:00.579Z,9.75
2023-04-01T10:54:00.560Z,9.73
2023-04-01T10:55:00.551Z,9.72
2023-04-01T10:56:00.553Z,9.71
2023-04-01T10:57:00.564Z,9.69
2023-04-01T10:58:00.517Z,9.68
2023-04-01T10:59:00.543Z,9.66
2023-04-01T11:00:00.473Z,9.64
2023-04-01T11:01:00.508Z,9.63
2023-04-01T11:02:08.325Z,9.61
2023-04-01T11:03:00.576Z,9.59
2023-04-01T11:04:00.545Z,9.57
2023-04-01T11:05:00.419Z,9.54
2023-04-01T11:06:00.420Z,9.50
2023-04-01T11:07:00.413Z,9.45
2023-04-01T11:08:06.145Z,9.40
2023-04-01T11:09:00.409Z,9.36
2023-04-01T11:10:00.358Z,9.31
2023-04-01T11:11:00.339Z,9.27
2023-04-01T11:12:00.345Z,9.23
2023-04-01T11:13:00.344Z,9.18
2023-04-01T11:14:00.348Z,9.13
2023-04-01T11:15:00.322Z,9.09
2023-04-01T11:16:00.352Z,9.04
2023-04-01T11:17:00.269Z,8.98
2023-04-01T11:18:00.302Z,8.91
2023-04-01T11:19:00.241Z,8.85
2023-04-01T11:20:00.234Z,8.79
2023-04-01T11:21:00.217Z,8.75
2023-04-01T11:22:00.220Z,8.71
2023-04-01T11:23:00.193Z,8.68
2023-04-01T11:24:05.154Z,8.66
2023-04-01T11:25:00.204Z,8.65
2023-04-01T11:26:00.157Z,8.64
2023-04-01T11:27:00.213Z,8.63
2023-04-01T11:28:00.133Z,8.62
2023-04-01T11:29:00.136Z,8.60
2023-04-01T11:30:00.913Z,8.59
2023-04-01T11:31:00.187Z,8.59
2023-04-01T11:32:00.092Z,8.58
2023-04-01T11:33:00.136Z,8.59
2023-04-01T11:34:00.094Z,8.59
2023-04-01T11:35:00.101Z,8.59
2023-04-01T11:36:00.043Z,8.58
2023-04-01T11:37:00.113Z,8.57
2023-04-01T11:38:00.010Z,8.56
2023-04-01T11:39:00.003Z,8.54
2023-04-01T11:39:59.989Z,8.52
2023-04-01T11:40:59.977Z,8.50
2023-04-01T11:41:59.970Z,8.49
2023-04-01T11:42:59.943Z,8.48
2023-04-01T11:43:59.943Z,8.47
2023-04-01T11:44:59.942Z,8.45
2023-04-01T11:46:00.015Z,8.44
2023-04-01T11:46:59.901Z,8.43
2023-04-01T11:47:59.917Z,8.42
2023-04-01T11:48:59.867Z,8.42
2023-04-01T11:49:59.878Z,8.41
2023-04-01T11:50:59.854Z,8.41
2023-04-01T11:51:59.850Z,8.41
2023-04-01T11:52:59.815Z,8.40
2023-04-01T11:53:59.795Z,8.39
2023-04-01T11:54:59.821Z,8.38
2023-04-01T11:55:59.796Z,8.35
2023-04-01T11:56:59.785Z,8.30
2023-04-01T11:57:59.772Z,8.23
2023-04-01T11:58:59.765Z,8.16
2023-04-01T11:59:59.724Z,8.08
2023-04-01T12:00:59.734Z,8.02
2023-04-01T12:01:59.698Z,7.96
2023-04-01T12:02:59.738Z,7.89
2023-04-01T12:03:59.892Z,7.82
2023-04-01T12:04:59.805Z,7.77
2023-04-01T12:05:59.667Z,7.72
2023-04-01T12:06:59.646Z,7.67
2023-04-01T12:07:59.622Z,7.61
2023-04-01T12:08:59.615Z,7.55
2023-04-01T12:09:59.592Z,7.51
2023-04-01T12:10:59.600Z,7.47
2023-04-01T12:11:59.581Z,7.44
2023-04-01T12:13:01.678Z,7.43
2023-04-01T12:13:59.540Z,7.41
2023-04-01T12:14:59.546Z,7.39
2023-04-01T12:16:00.379Z,7.37
2023-04-01T12:16:59.514Z,7.34
2023-04-01T12:17:59.557Z,7.33
2023-04-01T12:18:59.505Z,7.30
2023-04-01T12:19:59.486Z,7.28
2023-04-01T12:20:59.470Z,7.26
2023-04-01T12:21:59.444Z,7.26
2023-04-01T12:22:59.440Z,7.25
2023-04-01T12:23:59.450Z,7.24
2023-04-01T12:24:59.402Z,7.23
2023-04-01T12:25:59.421Z,7.22
2023-04-01T12:26:59.384Z,7.21
2023-04-01T12:27:59.374Z,7.20
2023-04-01T12:28:59.406Z,7.19
2023-04-01T12:29:59.344Z,7.17
2023-04-01T12:30:59.329Z,7.15
2023-04-01T12:31:59.352Z,7.13
2023-04-01T12:32:59.389Z,7.11
2023-04-01T12:33:59.299Z,7.08
2023-04-01T12:34:59.594Z,7.05
2023-04-01T12:35:59.329Z,7.02
2023-04-01T12:36:59.257Z,7.00
2023-04-01T12:37:59.233Z,6.98
2023-04-01T12:38:59.247Z,6.97
2023-04-01T12:39:59.217Z,6.96
2023-04-01T12:40:59.203Z,6.95
2023-04-01T12:41:59.200Z,6.93
2023-04-01T12:42:59.174Z,6.92
2023-04-01T12:43:59.167Z,6.91
2023-04-01T12:44:59.152Z,6.91
2023-04-01T12:45:59.149Z,6.90
2023-04-01T12:46:59.141Z,6.90
2023-04-01T12:47:59.154Z,6.91
2023-04-01T12:48:59.117Z,6.91
2023-04-01T12:49:59.311Z,6.91
2023-04-01T12:50:59.177Z,6.91
2023-04-01T12:51:59.081Z,6.91
2023-04-01T12:52:59.043Z,6.91
2023-04-01T12:53:59.054Z,6.91
2023-04-01T12:55:00.764Z,6.90
2023-04-01T12:55:59.012Z,6.90
2023-04-01T12:56:59.031Z,6.90
2023-04-01T12:57:58.990Z,6.89
2023-04-01T12:58:58.995Z,6.89
2023-04-01T12:59:58.985Z,6.89
2023-04-01T13:00:59.008Z,6.89
2023-04-01T13:01:58.940Z,6.89
2023-04-01T13:02:58.954Z,6.88
2023-04-01T13:03:59.038Z,6.87
2023-04-01T13:04:58.901Z,6.86
2023-04-01T13:05:58.904Z,6.86
2023-04-01T13:06:58.875Z,6.86
2023-04-01T13:07:58.862Z,6.86
2023-04-01T13:08:58.849Z,6.86
2023-04-01T13:09:58.834Z,6.86
2023-04-01T13:10:58.823Z,6.87
2023-04-01T13:11:58.806Z,6.87
2023-04-01T13:12:58.901Z,6.88
2023-04-01T13:13:58.796Z,6.89
2023-04-01T13:14:58.760Z,6.89
2023-04-01T13:15:58.810Z,6.90
2023-04-01T13:16:58.763Z,6.90
2023-04-01T13:17:58.754Z,6.91